Traer, IA

5:38 PM CDT on August 02, 2015 (GMT -0500)
KIATRAER2 | | Change Station
CLOSE
Current Station
Personal Weather Station
Location: Traer, IA
Elevation: 955 ft
Nearby Weather Stations

Elev 955 ft 42.19 °N, 92.46 °W | Updated 45 seconds ago

Clear
Clear
88.1 °F
Feels Like 102 °F
N
6.0
Wind Variable Wind from WNW
Gusts 6.0 mph

Today
High -- | Low -- °F
--% Chance of Precip.
Yesterday
High -- | Low -- °F
Precip. -- in
6:03 AM 8:28 PM
Waning Gibbous, 91% visible
Pressure 29.73 in
Visibility 10.0 miles
Clouds Few 4200 ft
Heat Index 102 °F
Dew Point 78 °F
Humidity 73%
Rainfall 0.00 in
Snow Depth Not available.
UV 5 out of 12
Pollen 6.60 out of 12
Air Quality Not available.
Flu Activity Not available.
METAR KMIW 022153Z AUTO 27008G16KT 10SM FEW042 31/24 A2975 RMK AO2 SLP067 T03110244

More Conditions Fewer Conditions

Pressure 29.73 in
Visibility 10.0 miles
Clouds Few 4200 ft
Heat Index 102 °F
Dew Point 78 °F
Humidity 73%
Rainfall 0.00 in
Snow Depth Not available.
UV 5 out of 12
Pollen 6.60 out of 12
Air Quality Not available.
Flu Activity Not available.
METAR KMIW 022153Z AUTO 27008G16KT 10SM FEW042 31/24 A2975 RMK AO2 SLP067 T03110244

More Conditions Fewer Conditions

10-Day Weather Forecast

×

Almanac

Astronomy

Aug. 02, 2015 Rise Set
Actual Time
Civil Twilight
Nautical Twilight
Astronomical Twilight
Moon
Length of Visible Light
Length of Day
Tomorrow will be .
, % of the Moon is Illuminated

Today's Extremes

State Highs State Lows

Community

WunderPhotos

Upload Photos

1,843,400 photos uploaded!

WunderBlogs® & News

Nearby

Air Quality

  Air Quality AQ Index Pollutant
Not available.

Snow Depth

Station Depth Elevation

Earthquake Activity

City Distance Mag. Time & Date
Minimum magnitude displayed is 2.5.

Coastal Water Temperatures

Place Temperature

Stations

Nearby Weather Stations

Station Location Temp. Windchill Dew Point Humidity Wind Precip. Elev Updated Type